Time;durP1;ratioP1;P1;durP2;ratioP2;P2;SDS_P1;SDS_P2;PMS_P1;PMS_P2;Temp;Humidity;BMP_temperature;BMP_pressure;BME280_temperature;BME280_humidity;BME280_pressure;Samples;Min_cycle;Max_cycle;Signal;HPM_P1;HPM_P2
2022/08/17 00:00:19;;;;;;;5.68;4.80;;;;;;;22.25;85.00;94192.63;5051308;28;20339;-66
2022/08/17 00:02:56;;;;;;;7.15;4.82;;;;;;;22.10;86.34;94181.00;5051343;28;20209;-60
2022/08/17 00:05:22;;;;;;;7.28;4.60;;;;;;;21.79;88.59;94175.81;5051213;28;20205;-60
2022/08/17 00:07:47;;;;;;;5.75;4.57;;;;;;;21.78;88.27;94190.53;5051567;28;20197;-61
2022/08/17 00:10:12;;;;;;;7.55;4.88;;;;;;;21.67;88.15;94189.41;5051200;28;20254;-60
2022/08/17 00:12:40;;;;;;;8.60;3.97;;;;;;;21.61;89.51;94176.53;5051064;28;20223;-60
2022/08/17 00:15:07;;;;;;;6.40;4.15;;;;;;;21.56;89.74;94184.09;5051240;28;20209;-63
2022/08/17 00:17:32;;;;;;;5.60;4.43;;;;;;;21.44;88.85;94196.91;5050988;28;20196;-64
2022/08/17 00:19:59;;;;;;;5.00;4.50;;;;;;;21.30;89.30;94192.00;5051008;28;20209;-63
2022/08/17 00:22:24;;;;;;;5.22;4.57;;;;;;;21.19;89.12;94198.59;5032869;28;20702;-63
2022/08/17 00:24:50;;;;;;;7.75;4.65;;;;;;;20.96;91.11;94174.22;5051113;28;20200;-63
2022/08/17 00:27:16;;;;;;;5.25;4.03;;;;;;;20.90;91.58;94174.06;5032779;28;20204;-64
2022/08/17 00:29:41;;;;;;;6.72;5.00;;;;;;;20.94;91.13;94192.53;5051221;28;20255;-64
2022/08/17 00:32:06;;;;;;;6.13;4.05;;;;;;;20.77;92.57;94178.44;5033866;28;20322;-63
2022/08/17 00:34:32;;;;;;;4.88;3.95;;;;;;;20.75;93.28;94177.84;5033020;28;20217;-63
2022/08/17 00:36:58;;;;;;;6.95;4.45;;;;;;;20.65;94.43;94169.75;5051313;28;20178;-64
2022/08/17 00:39:23;;;;;;;4.95;4.45;;;;;;;20.59;95.21;94173.94;5050985;28;20207;-63
2022/08/17 00:41:48;;;;;;;6.97;4.53;;;;;;;20.59;95.64;94176.50;5051026;28;20295;-63
2022/08/17 00:44:15;;;;;;;5.38;4.55;;;;;;;20.48;96.42;94173.78;5050655;28;20629;-65
2022/08/17 00:46:42;;;;;;;7.65;4.90;;;;;;;20.46;96.95;94168.00;5050892;28;20189;-65
2022/08/17 00:49:10;;;;;;;9.23;4.97;;;;;;;20.47;97.07;94174.75;5050993;28;20201;-64
2022/08/17 00:51:46;;;;;;;5.95;5.35;;;;;;;20.31;98.05;94170.81;5051202;28;20243;-64
2022/08/17 00:54:23;;;;;;;7.60;4.45;;;;;;;20.28;97.53;94173.78;5051239;28;20225;-63
2022/08/17 00:56:57;;;;;;;9.50;4.78;;;;;;;20.31;97.16;94188.88;5051130;28;20560;-64
2022/08/17 00:59:29;;;;;;;5.82;4.68;;;;;;;20.29;96.34;94195.22;5051001;28;20213;-63
2022/08/17 01:01:56;;;;;;;8.45;4.57;;;;;;;20.24;96.42;94189.88;5050754;28;20592;-64
2022/08/17 01:04:22;;;;;;;6.10;4.35;;;;;;;20.33;95.80;94199.00;5050211;28;20278;-64
2022/08/17 01:06:49;;;;;;;8.65;4.93;;;;;;;20.34;95.51;94198.03;5050285;28;20231;-65
2022/08/17 01:09:16;;;;;;;4.80;4.30;;;;;;;20.30;95.43;94196.84;5054914;28;20213;-64
2022/08/17 01:11:44;;;;;;;4.45;4.05;;;;;;;20.36;94.83;94214.09;5053849;28;20185;-63
2022/08/17 01:14:10;;;;;;;8.18;4.18;;;;;;;20.32;92.98;94228.41;5054731;28;20205;-61
2022/08/17 01:16:36;;;;;;;5.82;4.20;;;;;;;20.17;94.02;94207.13;5054147;28;20246;-60
2022/08/17 01:19:12;;;;;;;5.13;3.95;;;;;;;20.19;95.81;94203.38;5054581;28;20220;-64
2022/08/17 01:21:58;;;;;;;4.60;3.95;;;;;;;20.23;93.93;94217.47;5036043;28;20212;-65
2022/08/17 01:24:24;;;;;;;4.53;4.03;;;;;;;20.31;92.77;94226.81;5042836;23;20849;-65
2022/08/17 01:26:49;;;;;;;5.18;3.75;;;;;;;20.31;89.86;94265.53;5053756;28;20269;-64
2022/08/17 01:29:15;;;;;;;5.72;4.07;;;;;;;20.20;90.80;94245.50;5054299;28;20209;-63
2022/08/17 01:31:49;;;;;;;5.35;4.07;;;;;;;20.12;90.26;94246.44;5035905;28;20182;-64
2022/08/17 01:34:16;;;;;;;5.72;3.85;;;;;;;20.08;90.31;94238.28;5053973;28;20641;-64
2022/08/17 01:36:44;;;;;;;6.20;4.13;;;;;;;20.08;91.77;94220.22;5053821;28;20638;-63
2022/08/17 01:39:22;;;;;;;5.93;4.10;;;;;;;20.14;89.69;94248.84;5053896;28;20296;-65
2022/08/17 01:41:52;;;;;;;8.77;4.18;;;;;;;20.21;89.72;94241.91;5054021;28;20213;-64
2022/08/17 01:44:19;;;;;;;9.40;4.32;;;;;;;20.13;90.60;94227.38;5053992;28;20209;-64
2022/08/17 01:46:44;;;;;;;5.40;3.70;;;;;;;20.21;91.64;94218.66;5053499;28;20203;-64
2022/08/17 01:49:11;;;;;;;3.85;3.55;;;;;;;20.32;89.14;94246.50;5035840;28;20714;-65
2022/08/17 01:51:38;;;;;;;6.95;4.45;;;;;;;20.20;89.42;94233.34;5053521;28;20188;-64
2022/08/17 01:54:07;;;;;;;4.45;3.97;;;;;;;20.07;89.49;94239.28;5053238;28;20263;-64
2022/08/17 01:56:35;;;;;;;4.72;3.90;;;;;;;20.15;88.25;94255.56;5054412;28;20200;-64
2022/08/17 01:59:01;;;;;;;5.63;3.50;;;;;;;20.18;87.38;94265.50;5035729;28;20637;-60
2022/08/17 02:01:30;;;;;;;4.07;3.55;;;;;;;20.14;89.41;94238.50;5054261;28;20264;-64
2022/08/17 02:03:57;;;;;;;7.40;4.43;;;;;;;20.03;90.78;94225.19;5054173;28;20241;-64
2022/08/17 02:06:22;;;;;;;6.07;3.97;;;;;;;20.13;91.02;94229.16;5053587;28;20224;-64
2022/08/17 02:08:48;;;;;;;5.97;4.30;;;;;;;20.15;90.59;94238.31;5035935;28;20245;-63
2022/08/17 02:11:16;;;;;;;5.68;3.80;;;;;;;20.34;89.34;94254.81;5053246;28;20204;-63
2022/08/17 02:13:47;;;;;;;7.68;4.05;;;;;;;20.39;88.36;94268.72;5052857;28;20205;-64
2022/08/17 02:16:12;;;;;;;7.43;4.47;;;;;;;20.37;88.54;94260.38;5053572;28;20223;-60
2022/08/17 02:18:38;;;;;;;6.07;3.80;;;;;;;20.27;88.96;94259.97;5052930;28;20231;-60
2022/08/17 02:21:04;;;;;;;4.90;4.28;;;;;;;20.26;86.22;94291.16;5053204;28;20666;-65
2022/08/17 02:23:33;;;;;;;4.78;4.05;;;;;;;20.14;86.53;94280.59;5053578;28;20229;-63
2022/08/17 02:26:00;;;;;;;4.95;3.97;;;;;;;20.04;88.80;94247.41;5035271;28;20182;-63
2022/08/17 02:28:27;;;;;;;4.63;3.97;;;;;;;20.13;87.11;94267.88;5034915;28;20249;-63
2022/08/17 02:30:54;;;;;;;9.27;4.60;;;;;;;20.08;88.55;94256.34;5035131;28;20208;-61
2022/08/17 02:33:20;;;;;;;6.03;3.88;;;;;;;20.07;89.86;94236.72;5053179;28;20666;-63
2022/08/17 02:35:46;;;;;;;6.03;4.03;;;;;;;20.03;89.74;94234.72;5053339;28;20587;-63
2022/08/17 02:38:11;;;;;;;9.05;4.53;;;;;;;19.73;91.94;94205.91;5052823;28;20319;-63
2022/08/17 02:40:39;;;;;;;4.75;4.07;;;;;;;19.71;92.68;94196.78;5034959;28;20186;-65
2022/08/17 02:43:05;;;;;;;5.47;4.40;;;;;;;19.69;93.38;94193.59;5052567;28;20217;-63
2022/08/17 02:45:30;;;;;;;4.90;4.00;;;;;;;19.66;93.96;94199.13;5052808;28;20563;-63
2022/08/17 02:47:56;;;;;;;6.45;4.10;;;;;;;19.48;95.51;94176.50;5053138;28;20201;-60
2022/08/17 02:50:23;;;;;;;8.88;5.20;;;;;;;19.41;94.96;94196.34;5052787;28;20233;-63
2022/08/17 02:52:50;;;;;;;6.80;4.72;;;;;;;19.48;93.85;94204.84;5034705;28;20197;-60
2022/08/17 02:55:21;;;;;;;7.28;4.80;;;;;;;19.50;93.70;94205.47;5052804;28;20702;-64
2022/08/17 02:57:47;;;;;;;9.93;5.38;;;;;;;19.38;95.60;94186.38;5035096;28;20251;-61
2022/08/17 03:00:28;;;;;;;6.65;5.85;;;;;;;19.37;95.83;94184.00;5052488;28;20214;-59
2022/08/17 03:02:55;;;;;;;14.38;7.47;;;;;;;19.48;94.94;94202.28;5052949;28;20213;-64
2022/08/17 03:05:24;;;;;;;9.73;7.88;;;;;;;19.46;93.82;94209.41;5035238;28;20217;-60
2022/08/17 03:07:50;;;;;;;7.70;6.90;;;;;;;19.34;95.40;94192.94;5053383;28;20194;-63
2022/08/17 03:10:16;;;;;;;11.48;7.35;;;;;;;19.58;94.36;94217.38;5053433;28;20742;-62
2022/08/17 03:12:42;;;;;;;11.68;7.28;;;;;;;19.71;93.25;94225.94;5034096;28;20224;-63
2022/08/17 03:15:15;;;;;;;10.20;7.00;;;;;;;19.63;94.14;94220.97;5052701;28;20217;-61
2022/08/17 03:17:41;;;;;;;11.40;7.55;;;;;;;19.50;95.07;94210.63;5052183;28;20725;-61
2022/08/17 03:20:07;;;;;;;8.80;6.90;;;;;;;19.29;97.08;94198.63;5052191;28;20213;-60
2022/08/17 03:22:44;;;;;;;7.38;6.65;;;;;;;19.51;96.30;94207.06;5052128;28;20209;-59
2022/08/17 03:25:12;;;;;;;8.05;6.97;;;;;;;19.60;96.14;94215.41;5035483;28;20300;-60
2022/08/17 03:27:38;;;;;;;10.18;6.47;;;;;;;19.60;96.17;94216.19;5034878;28;20193;-64
2022/08/17 03:30:05;;;;;;;6.78;5.45;;;;;;;19.57;97.20;94218.38;5051108;28;20247;-64
2022/08/17 03:32:40;;;;;;;9.13;5.90;;;;;;;19.38;97.76;94198.47;5034016;28;20189;-60
2022/08/17 03:35:06;;;;;;;12.32;6.97;;;;;;;19.30;98.75;94189.13;5051598;28;20204;-64
2022/08/17 03:37:31;;;;;;;13.50;9.32;;;;;;;19.42;97.04;94218.53;5051863;28;20185;-65
2022/08/17 03:39:57;;;;;;;11.00;8.80;;;;;;;19.29;97.00;94213.28;5052047;28;20209;-61
2022/08/17 03:42:25;;;;;;;9.32;7.90;;;;;;;19.31;97.50;94211.31;5051950;28;20213;-67
2022/08/17 03:44:53;;;;;;;12.98;8.32;;;;;;;19.36;97.02;94224.47;5052158;28;20694;-65
2022/08/17 03:58:18;;;;;;;7.13;4.47;;;;;;;19.30;92.68;94271.59;5051984;28;20208;-63
2022/08/17 04:00:50;;;;;;;5.35;4.68;;;;;;;19.27;92.65;94269.41;5033545;28;20272;-63
2022/08/17 04:03:16;;;;;;;10.88;5.32;;;;;;;19.23;93.30;94266.41;5051448;28;20213;-64
2022/08/17 04:05:42;;;;;;;5.95;4.25;;;;;;;19.30;92.37;94279.34;5051507;28;20185;-65
2022/08/17 04:08:08;;;;;;;4.70;4.25;;;;;;;19.18;92.76;94273.13;5051377;28;20193;-64
2022/08/17 04:10:35;;;;;;;6.68;4.30;;;;;;;19.10;93.21;94263.78;5051790;28;20177;-64
2022/08/17 04:13:01;;;;;;;9.18;4.65;;;;;;;19.03;93.63;94257.00;5051269;28;20675;-65
2022/08/17 04:15:27;;;;;;;5.78;4.28;;;;;;;18.94;94.96;94250.41;5051045;28;20254;-64
2022/08/17 04:17:54;;;;;;;5.80;4.60;;;;;;;18.93;95.27;94247.03;5051716;28;20194;-63
2022/08/17 04:20:22;;;;;;;6.43;4.68;;;;;;;18.91;96.32;94238.72;5051312;28;20208;-62
2022/08/17 04:23:04;;;;;;;7.30;4.72;;;;;;;18.95;95.83;94252.78;5032895;28;20647;-66
2022/08/17 04:25:33;;;;;;;6.40;4.13;;;;;;;18.96;95.79;94256.19;5051075;28;20233;-63
2022/08/17 04:27:59;;;;;;;7.40;4.53;;;;;;;19.11;94.32;94274.88;5051345;28;20213;-66
2022/08/17 04:30:28;;;;;;;6.05;4.03;;;;;;;19.09;96.85;94243.34;5050996;28;20209;-63
2022/08/17 04:32:57;;;;;;;5.80;4.20;;;;;;;19.41;96.46;94290.91;5032985;28;20196;-61
2022/08/17 04:35:29;;;;;;;7.28;4.47;;;;;;;19.42;94.27;94307.97;5051157;28;20205;-62
2022/08/17 04:37:55;;;;;;;5.65;4.22;;;;;;;19.50;95.89;94276.84;5051574;28;20209;-59
2022/08/17 04:43:10;;;;;;;7.75;4.57;;;;;;;19.46;97.83;94262.75;5051102;28;20648;-63
2022/08/17 04:45:41;;;;;;;10.68;5.70;;;;;;;19.69;95.02;94320.00;5050478;28;20185;-63
2022/08/17 04:48:07;;;;;;;6.45;4.30;;;;;;;19.78;94.78;94303.34;5016799;28;20193;-62
2022/08/17 04:50:34;;;;;;;5.40;4.47;;;;;;;19.86;93.48;94322.03;5050792;28;20177;-65
2022/08/17 04:53:00;;;;;;;7.60;5.30;;;;;;;20.18;100.00;94262.94;5051131;28;20181;-63
2022/08/17 04:55:27;;;;;;;8.27;4.65;;;;;;;20.49;100.00;94253.63;5051466;28;20751;-62
2022/08/17 04:57:53;;;;;;;9.25;5.00;;;;;;;20.53;97.55;94321.97;5051038;28;20239;-62
2022/08/17 05:00:19;;;;;;;6.63;4.70;;;;;;;20.71;94.92;94340.25;5050541;28;20213;-61
2022/08/17 05:02:46;;;;;;;7.15;4.88;;;;;;;20.93;86.79;94426.13;5051106;28;20368;-62
2022/08/17 05:05:16;;;;;;;5.70;5.07;;;;;;;20.85;86.35;94419.38;5052832;28;20330;-64
2022/08/17 05:07:42;;;;;;;5.78;4.60;;;;;;;20.75;84.24;94439.63;5033273;28;20190;-63
2022/08/17 05:10:08;;;;;;;7.68;4.70;;;;;;;20.44;86.89;94381.75;5050732;28;20207;-64
2022/08/17 05:12:33;;;;;;;7.57;5.43;;;;;;;20.51;87.92;94377.38;5033255;28;20186;-61
2022/08/17 05:14:59;;;;;;;9.32;4.90;;;;;;;20.63;91.68;94319.78;5056850;22;20244;-62
2022/08/17 05:17:24;;;;;;;6.55;5.18;;;;;;;20.71;86.61;94391.13;5050360;28;20181;-61
2022/08/17 05:19:50;;;;;;;9.65;5.85;;;;;;;20.65;91.15;94335.06;5050118;28;20210;-61
2022/08/17 05:22:15;;;;;;;10.80;5.53;;;;;;;20.62;90.21;94353.56;5050392;28;20210;-62
2022/08/17 05:24:40;;;;;;;13.27;9.90;;;;;;;20.82;88.18;94383.59;5050355;28;20235;-62
2022/08/17 05:27:06;;;;;;;9.85;6.35;;;;;;;20.89;87.50;94388.75;5032302;28;20193;-64
2022/08/17 05:29:31;;;;;;;5.55;5.00;;;;;;;20.91;85.45;94428.09;5051329;28;20216;-62
2022/08/17 05:31:57;;;;;;;8.25;5.47;;;;;;;20.83;88.22;94371.44;5050133;28;20540;-63
2022/08/17 05:34:22;;;;;;;6.38;5.07;;;;;;;21.05;89.15;94365.09;5050199;28;20214;-63
2022/08/17 05:36:48;;;;;;;6.85;4.82;;;;;;;21.25;91.63;94334.84;5032209;28;20193;-63
2022/08/17 05:39:13;;;;;;;10.10;5.32;;;;;;;21.41;85.25;94430.09;5031340;28;20217;-63
2022/08/17 05:41:39;;;;;;;7.35;5.43;;;;;;;21.43;84.69;94429.94;5049293;28;20610;-64
2022/08/17 05:44:05;;;;;;;6.80;5.38;;;;;;;21.45;85.08;94427.94;5050509;28;20209;-63
2022/08/17 05:46:34;;;;;;;6.35;5.13;;;;;;;21.29;88.53;94369.63;5032661;28;20614;-62
2022/08/17 05:49:06;;;;;;;8.27;5.22;;;;;;;21.30;90.00;94352.34;5049982;28;20212;-61
2022/08/17 05:52:10;;;;;;;8.48;6.55;;;;;;;21.44;85.41;94415.97;5032470;28;20284;-63
2022/08/17 05:55:03;;;;;;;11.20;6.45;;;;;;;21.45;86.77;94389.91;4951573;28;20263;-61
2022/08/17 05:57:42;;;;;;;8.63;5.82;;;;;;;21.34;86.83;94382.78;4953527;29;20185;-64
2022/08/17 06:00:33;;;;;;;9.55;5.38;;;;;;;21.52;87.26;94382.13;5033178;22;20236;-63
2022/08/17 06:03:22;;;;;;;9.30;6.30;;;;;;;21.59;87.36;94381.13;5039922;28;20286;-64
2022/08/17 06:05:54;;;;;;;10.20;6.00;;;;;;;21.55;88.74;94364.41;5033774;28;20170;-63
2022/08/17 06:08:46;;;;;;;6.72;5.65;;;;;;;21.68;87.32;94384.28;5015771;28;20695;-63
2022/08/17 06:11:27;;;;;;;8.15;6.07;;;;;;;21.73;88.04;94364.53;5033320;28;20735;-64
2022/08/17 06:14:26;;;;;;;7.65;5.78;;;;;;;21.73;87.44;94380.06;5033863;28;20680;-60
2022/08/17 06:17:01;;;;;;;9.98;6.88;;;;;;;21.65;88.47;94364.78;5015517;28;20217;-63
2022/08/17 06:19:37;;;;;;;10.00;7.43;;;;;;;21.92;86.95;94388.81;5033507;28;20213;-64
2022/08/17 06:22:04;;;;;;;13.90;6.68;;;;;;;22.16;94.35;94288.91;5033351;28;20571;-64
2022/08/17 06:24:42;;;;;;;14.10;7.10;;;;;;;22.56;90.84;94336.84;5033169;28;20214;-64
2022/08/17 06:27:10;;;;;;;14.95;6.55;;;;;;;22.93;86.43;94412.97;5033153;28;20198;-60
2022/08/17 06:29:50;;;;;;;19.15;6.82;;;;;;;23.01;84.55;94430.84;5032984;28;20244;-60
2022/08/17 06:32:16;;;;;;;16.25;6.63;;;;;;;23.08;82.40;94449.75;5031695;28;20672;-60
2022/08/17 06:34:44;;;;;;;12.60;6.72;;;;;;;23.51;82.50;94447.25;5015448;28;20218;-63
2022/08/17 06:37:34;;;;;;;13.48;6.43;;;;;;;23.62;80.55;94473.28;5032841;28;20217;-65
2022/08/17 06:40:14;;;;;;;11.75;6.45;;;;;;;23.83;79.54;94483.28;5033227;28;20214;-63
2022/08/17 06:43:11;;;;;;;12.10;6.32;;;;;;;23.92;78.44;94500.16;5031682;28;20305;-60
2022/08/17 06:45:49;;;;;;;10.65;6.80;;;;;;;24.11;76.25;94534.78;5032773;28;20194;-60
2022/08/17 06:48:24;;;;;;;14.48;6.47;;;;;;;24.14;75.72;94542.13;5032698;28;20189;-59
2022/08/17 06:50:58;;;;;;;17.52;7.18;;;;;;;24.28;75.22;94535.00;5032841;28;20190;-64
2022/08/17 06:53:33;;;;;;;11.70;6.25;;;;;;;24.38;74.79;94525.69;5032385;28;20209;-64
2022/08/17 06:56:11;;;;;;;8.13;6.32;;;;;;;24.40;73.23;94556.66;5032821;28;20651;-60
2022/08/17 06:58:40;;;;;;;12.80;6.43;;;;;;;24.56;73.33;94545.69;5032583;28;20269;-59
2022/08/17 07:01:16;;;;;;;8.38;6.28;;;;;;;24.66;73.12;94545.97;5032765;28;20200;-64
2022/08/17 07:03:48;;;;;;;7.70;5.95;;;;;;;24.63;72.12;94569.78;5032498;28;20707;-63
2022/08/17 07:06:17;;;;;;;13.13;7.32;;;;;;;24.74;71.04;94567.31;5032363;28;20206;-65
2022/08/17 07:08:51;;;;;;;14.00;6.93;;;;;;;24.71;70.56;94579.91;5032393;28;20580;-62
2022/08/17 07:11:26;;;;;;;12.23;6.35;;;;;;;24.79;70.20;94564.81;5032509;28;20210;-64
2022/08/17 07:13:55;;;;;;;13.00;6.75;;;;;;;24.91;68.31;94602.09;5014586;28;20218;-64
2022/08/17 07:16:29;;;;;;;8.88;5.88;;;;;;;24.69;70.78;94538.50;5014535;28;20186;-64
2022/08/17 07:18:57;;;;;;;11.82;6.28;;;;;;;24.82;71.48;94527.19;5014575;28;20222;-64
2022/08/17 07:21:48;;;;;;;7.75;6.40;;;;;;;24.96;68.60;94588.44;5032322;28;20170;-64
2022/08/17 07:24:19;;;;;;;10.23;6.18;;;;;;;24.96;69.22;94570.22;5032786;28;20215;-60
2022/08/17 07:26:48;;;;;;;7.72;5.68;;;;;;;24.98;69.60;94560.41;5032121;28;20259;-64
2022/08/17 07:29:17;;;;;;;12.70;6.40;;;;;;;25.10;69.37;94561.22;5014393;28;20209;-63
2022/08/17 07:31:43;;;;;;;9.80;6.70;;;;;;;25.21;69.27;94563.06;5032010;28;20186;-64
2022/08/17 07:34:13;;;;;;;9.77;6.00;;;;;;;25.42;68.64;94556.59;5032198;28;20241;-63
2022/08/17 07:36:40;;;;;;;8.27;5.78;;;;;;;25.29;68.64;94561.97;5032039;28;20182;-63
2022/08/17 07:39:07;;;;;;;9.95;5.95;;;;;;;25.49;69.07;94554.69;5032044;28;20222;-64
2022/08/17 07:41:38;;;;;;;9.43;5.95;;;;;;;25.65;68.13;94569.69;5031681;28;20220;-64
2022/08/17 07:44:11;;;;;;;9.80;6.28;;;;;;;25.79;67.80;94566.66;5031812;28;20292;-65
2022/08/17 07:49:32;;;;;;;8.02;5.85;;;;;;;26.03;66.87;94580.47;5031994;28;20217;-64
2022/08/17 07:52:02;;;;;;;10.20;5.82;;;;;;;26.18;65.05;94609.50;5031793;28;20594;-64
2022/08/17 07:54:35;;;;;;;9.88;5.72;;;;;;;26.23;64.47;94607.03;5031744;28;20249;-61
2022/08/17 07:57:22;;;;;;;9.30;6.18;;;;;;;26.45;64.90;94597.59;5014017;28;20679;-61
2022/08/17 08:00:15;;;;;;;8.73;6.22;;;;;;;26.66;63.46;94624.91;5031486;28;20245;-61
2022/08/17 08:02:44;;;;;;;8.10;5.40;;;;;;;26.74;64.06;94598.50;5031477;28;20209;-60
2022/08/17 08:05:20;;;;;;;9.45;5.68;;;;;;;26.72;63.92;94590.13;5032011;28;20214;-63
2022/08/17 08:08:00;;;;;;;9.32;5.45;;;;;;;26.97;61.84;94642.00;5030268;28;20574;-66
2022/08/17 08:10:26;;;;;;;11.05;6.00;;;;;;;27.06;61.38;94640.63;5021147;23;20699;-63
2022/08/17 08:13:03;;;;;;;6.40;4.88;;;;;;;26.73;60.33;94662.13;5013637;28;20750;-63
2022/08/17 08:15:48;;;;;;;7.57;5.10;;;;;;;26.38;60.15;94646.47;5031281;28;20202;-63
2022/08/17 08:18:39;;;;;;;12.35;5.80;;;;;;;26.43;60.10;94645.78;5012913;28;20222;-60
2022/08/17 08:21:08;;;;;;;5.97;4.70;;;;;;;26.41;60.80;94627.75;5031624;28;20217;-62
2022/08/17 08:23:59;;;;;;;8.18;5.70;;;;;;;26.51;59.94;94643.63;5031489;28;20226;-60
2022/08/17 08:26:45;;;;;;;8.05;4.93;;;;;;;26.57;56.96;94704.53;5031271;28;20236;-61
2022/08/17 08:29:13;;;;;;;8.02;5.25;;;;;;;26.56;58.06;94672.41;5031739;28;20210;-60
2022/08/17 08:31:57;;;;;;;6.50;4.65;;;;;;;26.77;56.48;94702.41;5031278;28;20174;-60
2022/08/17 08:34:35;;;;;;;6.90;4.70;;;;;;;26.95;57.51;94663.09;5013570;28;20331;-63
2022/08/17 08:37:15;;;;;;;7.10;4.57;;;;;;;26.80;57.61;94652.38;5013391;28;20197;-64
2022/08/17 08:39:52;;;;;;;11.63;5.32;;;;;;;26.81;57.78;94645.31;5013388;28;20605;-61
2022/08/17 08:42:48;;;;;;;7.00;4.03;;;;;;;26.80;57.20;94647.16;5013274;28;20259;-60
2022/08/17 08:45:38;;;;;;;9.82;4.88;;;;;;;26.82;56.56;94665.97;5031031;28;20213;-60
2022/08/17 08:48:12;;;;;;;4.95;4.20;;;;;;;26.94;55.03;94703.28;5031103;28;20722;-61
2022/08/17 08:50:39;;;;;;;4.10;3.55;;;;;;;26.94;55.64;94681.63;5031087;28;20185;-64
2022/08/17 08:53:10;;;;;;;5.85;4.40;;;;;;;27.06;55.42;94682.38;5030910;28;20271;-63
2022/08/17 08:56:15;;;;;;;4.70;3.97;;;;;;;27.28;54.62;94702.44;5030751;28;20734;-65
2022/08/17 08:58:52;;;;;;;7.15;3.97;;;;;;;27.62;57.33;94632.81;4981316;28;20229;-64
2022/08/17 09:01:50;;;;;;;7.78;4.30;;;;;;;27.97;56.23;94645.72;5031001;28;20197;-61
2022/08/17 09:04:25;;;;;;;7.93;5.10;;;;;;;28.09;52.59;94741.38;5030544;28;20214;-60
2022/08/17 09:07:23;;;;;;;5.45;3.80;;;;;;;27.92;52.19;94641.19;5030581;28;20220;-60
2022/08/17 09:10:15;;;;;;;5.88;3.97;;;;;;;27.73;51.66;94621.53;5030723;28;20222;-64
2022/08/17 09:12:50;;;;;;;4.15;3.67;;;;;;;28.21;52.41;94593.03;5012787;28;20190;-66
2022/08/17 09:15:48;;;;;;;6.47;4.10;;;;;;;28.44;50.70;94609.56;5012776;28;20210;-64
2022/08/17 09:18:27;;;;;;;4.88;3.45;;;;;;;28.83;51.59;94575.31;5000352;28;20665;-64
2022/08/17 09:21:02;;;;;;;9.93;3.80;;;;;;;28.74;49.86;94617.84;5012714;28;20573;-64
2022/08/17 09:23:38;;;;;;;9.73;3.90;;;;;;;28.51;48.97;94628.50;5030649;28;20213;-64
2022/08/17 09:26:15;;;;;;;4.13;3.22;;;;;;;28.56;47.97;94639.06;5030828;28;20273;-64
2022/08/17 09:28:47;;;;;;;5.78;3.95;;;;;;;28.60;47.37;94620.03;5032157;28;20395;-63
2022/08/17 09:31:34;;;;;;;4.60;3.67;;;;;;;28.95;47.26;94617.06;5033835;28;20240;-63
2022/08/17 09:34:07;;;;;;;3.67;3.22;;;;;;;29.28;47.85;94603.06;5016128;28;20218;-64
2022/08/17 09:37:01;;;;;;;4.95;3.50;;;;;;;29.77;45.12;94655.25;5034015;28;20703;-64
2022/08/17 09:39:37;;;;;;;4.20;3.20;;;;;;;28.90;44.97;94640.56;4971916;28;20295;-64
2022/08/17 09:42:44;;;;;;;9.43;3.80;;;;;;;28.79;46.25;94620.53;5033612;28;20209;-65
2022/08/17 09:45:31;;;;;;;6.78;3.50;;;;;;;29.12;45.46;94612.56;5033562;28;20723;-60
2022/08/17 09:48:18;;;;;;;6.38;3.70;;;;;;;29.01;45.86;94613.47;5033865;28;20190;-63
2022/08/17 09:51:13;;;;;;;10.00;2.95;;;;;;;28.99;45.75;94615.53;5033465;28;20193;-62
2022/08/17 09:53:40;;;;;;;4.32;2.90;;;;;;;29.23;43.78;94653.56;5012524;28;20854;-66
2022/08/17 09:56:17;;;;;;;6.15;3.33;;;;;;;29.33;42.41;94679.09;5033357;28;20194;-65
2022/08/17 09:59:02;;;;;;;5.30;2.97;;;;;;;29.33;43.63;94626.72;5033762;28;20225;-65
2022/08/17 10:01:50;;;;;;;6.13;3.42;;;;;;;29.44;43.96;94620.53;5017018;28;20210;-61
2022/08/17 10:04:38;;;;;;;4.10;3.10;;;;;;;29.78;41.73;94643.69;5033225;28;20276;-61
2022/08/17 10:07:13;;;;;;;6.10;3.60;;;;;;;30.18;42.39;94642.47;5033414;28;20190;-61
2022/08/17 10:09:44;;;;;;;4.18;3.15;;;;;;;30.77;42.16;94643.91;5033352;28;20213;-64
2022/08/17 10:12:50;;;;;;;6.72;3.38;;;;;;;30.16;39.31;94695.16;5033354;28;20205;-61
2022/08/17 10:15:21;;;;;;;4.68;3.03;;;;;;;30.19;39.52;94673.69;5033172;28;20594;-62
2022/08/17 10:18:36;;;;;;;3.75;3.10;;;;;;;30.18;38.85;94668.69;5033266;28;20351;-65
2022/08/17 10:27:02;;;;;;;3.85;3.40;;;;;;;29.53;41.61;94591.00;5033117;28;20196;-62
2022/08/17 10:29:36;;;;;;;4.20;3.10;;;;;;;29.36;40.32;94610.47;5032960;28;20214;-62
2022/08/17 10:32:07;;;;;;;4.57;2.88;;;;;;;30.05;39.02;94643.66;5032891;28;20236;-63
2022/08/17 10:34:33;;;;;;;6.13;2.85;;;;;;;29.98;38.53;94647.56;5032804;28;20214;-63
2022/08/17 10:37:19;;;;;;;3.33;3.03;;;;;;;29.91;40.22;94602.38;5032839;28;20703;-63
2022/08/17 10:39:56;;;;;;;5.18;2.83;;;;;;;30.38;39.27;94624.28;5032563;28;20226;-63
2022/08/17 10:42:33;;;;;;;5.10;3.00;;;;;;;30.21;38.83;94634.06;5032740;28;20218;-64
2022/08/17 10:45:13;;;;;;;4.00;3.60;;;;;;;30.77;38.84;94632.63;5032657;28;20217;-62
2022/08/17 10:47:58;;;;;;;5.53;3.40;;;;;;;31.06;36.92;94666.16;5016714;28;20194;-63
2022/08/17 10:50:56;;;;;;;6.80;3.38;;;;;;;30.83;37.18;94653.41;5032589;28;20638;-64
2022/08/17 10:53:30;;;;;;;5.78;3.08;;;;;;;31.17;36.66;94661.75;5032413;28;20194;-64
2022/08/17 10:56:11;;;;;;;5.68;2.90;;;;;;;30.99;35.76;94676.09;5014747;28;20194;-63
2022/08/17 10:58:49;;;;;;;4.00;3.20;;;;;;;31.39;35.62;94663.16;5014782;28;20256;-64
2022/08/17 11:01:15;;;;;;;6.97;3.25;;;;;;;31.47;35.88;94648.75;5032587;28;20232;-63
2022/08/17 11:03:55;;;;;;;6.95;3.58;;;;;;;31.51;36.96;94617.47;5032572;28;20222;-62
2022/08/17 11:06:24;;;;;;;3.92;3.40;;;;;;;31.29;36.43;94628.94;5032336;28;20240;-62
2022/08/17 11:09:06;;;;;;;4.68;3.40;;;;;;;31.41;36.11;94628.75;5032483;28;20214;-64
2022/08/17 11:12:12;;;;;;;5.00;3.40;;;;;;;31.28;36.50;94611.59;5032800;28;20675;-65
2022/08/17 11:14:59;;;;;;;7.60;3.10;;;;;;;30.76;36.76;94586.41;4971558;28;20331;-64
2022/08/17 11:17:48;;;;;;;5.13;3.30;;;;;;;30.85;37.50;94583.06;5032119;28;20190;-63
2022/08/17 11:20:33;;;;;;;6.88;3.65;;;;;;;31.09;37.95;94563.19;5014484;28;20217;-64
2022/08/17 11:23:30;;;;;;;5.25;4.00;;;;;;;31.06;37.37;94589.97;5032125;28;20297;-64
2022/08/17 11:26:02;;;;;;;5.60;3.75;;;;;;;30.77;37.97;94564.34;5032141;28;20273;-61
2022/08/17 11:28:34;;;;;;;4.57;3.70;;;;;;;30.39;38.37;94549.72;5032206;28;20695;-60
2022/08/17 11:31:09;;;;;;;6.38;3.90;;;;;;;30.06;39.98;94514.09;5031947;28;20208;-66
2022/08/17 11:33:34;;;;;;;5.65;3.60;;;;;;;30.87;40.27;94517.94;5032405;28;20202;-65
2022/08/17 11:36:14;;;;;;;6.13;3.80;;;;;;;31.18;38.20;94572.16;5032017;28;20279;-64
2022/08/17 11:38:56;;;;;;;6.05;3.67;;;;;;;31.17;37.62;94585.56;5031835;28;20302;-64
2022/08/17 11:41:43;;;;;;;6.60;3.95;;;;;;;32.42;37.99;94570.91;5031673;28;20186;-64
2022/08/17 11:44:20;;;;;;;8.98;4.10;;;;;;;32.44;38.28;94551.16;5032088;28;20294;-64
2022/08/17 11:52:55;;;;;;;4.32;3.92;;;;;;;31.65;40.48;94519.41;5030596;28;20201;-63
2022/08/17 11:55:36;;;;;;;6.07;3.83;;;;;;;31.17;41.65;94504.88;5031286;28;20209;-64
2022/08/17 11:58:05;;;;;;;4.93;4.00;;;;;;;30.92;43.65;94462.81;5031835;28;20190;-63
2022/08/17 12:00:46;;;;;;;6.80;4.22;;;;;;;30.33;44.58;94456.28;5031582;28;20191;-64
2022/08/17 12:03:30;;;;;;;5.65;4.20;;;;;;;30.10;45.50;94438.34;5031382;28;20295;-64
2022/08/17 12:06:29;;;;;;;7.78;4.35;;;;;;;30.06;46.33;94413.66;5013502;28;20194;-64
2022/08/17 12:09:09;;;;;;;5.03;4.40;;;;;;;30.38;45.82;94430.09;5031927;28;20210;-64
2022/08/17 12:12:11;;;;;;;5.90;4.35;;;;;;;30.21;46.11;94434.69;5031547;28;20182;-61
2022/08/17 12:14:39;;;;;;;4.97;4.47;;;;;;;30.13;46.99;94422.88;5031133;28;20232;-64
2022/08/17 12:17:11;;;;;;;5.13;4.50;;;;;;;30.73;46.78;94440.66;5031255;28;20186;-61
2022/08/17 12:19:38;;;;;;;8.48;4.75;;;;;;;30.69;45.65;94457.97;5031304;28;20283;-61
2022/08/17 12:22:15;;;;;;;5.20;4.80;;;;;;;30.85;45.28;94469.34;5013510;28;20214;-63
2022/08/17 12:24:49;;;;;;;5.47;4.07;;;;;;;31.51;43.77;94488.66;5031366;28;20226;-61
2022/08/17 12:27:36;;;;;;;6.95;3.95;;;;;;;31.77;41.27;94540.19;5031142;28;20186;-61
2022/08/17 12:30:08;;;;;;;4.80;4.30;;;;;;;32.32;39.74;94571.72;5031164;28;20723;-63